sensor_id;sensor_type;location;lat;lon;timestamp;temperature;humidity
41592;DHT22;28026;48.562;14.440;2022-12-18T00:01:57;-8.10;99.90
41592;DHT22;28026;48.562;14.440;2022-12-18T00:04:30;-8.20;99.90
41592;DHT22;28026;48.562;14.440;2022-12-18T00:07:01;-8.30;99.90
41592;DHT22;28026;48.562;14.440;2022-12-18T00:09:31;-8.40;99.90
41592;DHT22;28026;48.562;14.440;2022-12-18T00:12:03;-8.30;99.90
41592;DHT22;28026;48.562;14.440;2022-12-18T00:14:34;-8.20;99.90
41592;DHT22;28026;48.562;14.440;2022-12-18T00:17:05;-8.40;99.90
41592;DHT22;28026;48.562;14.440;2022-12-18T00:19:36;-8.50;99.90
41592;DHT22;28026;48.562;14.440;2022-12-18T00:22:07;-8.60;99.90
41592;DHT22;28026;48.562;14.440;2022-12-18T00:24:37;-8.70;99.90
41592;DHT22;28026;48.562;14.440;2022-12-18T00:27:08;-8.70;99.90
41592;DHT22;28026;48.562;14.440;2022-12-18T00:29:39;-8.70;99.90
41592;DHT22;28026;48.562;14.440;2022-12-18T00:32:10;-8.70;99.90
41592;DHT22;28026;48.562;14.440;2022-12-18T00:34:41;-8.80;99.90
41592;DHT22;28026;48.562;14.440;2022-12-18T00:37:12;-8.80;99.90
41592;DHT22;28026;48.562;14.440;2022-12-18T00:39:43;-8.70;99.90
41592;DHT22;28026;48.562;14.440;2022-12-18T00:42:13;-8.60;99.90
41592;DHT22;28026;48.562;14.440;2022-12-18T00:45:03;-8.50;99.90
41592;DHT22;28026;48.562;14.440;2022-12-18T00:47:34;-8.40;99.90
41592;DHT22;28026;48.562;14.440;2022-12-18T00:50:05;-8.50;99.90
41592;DHT22;28026;48.562;14.440;2022-12-18T00:52:37;-8.60;99.90
41592;DHT22;28026;48.562;14.440;2022-12-18T00:55:08;-8.50;99.90
41592;DHT22;28026;48.562;14.440;2022-12-18T00:57:41;-8.70;99.90
41592;DHT22;28026;48.562;14.440;2022-12-18T01:00:14;-9.10;99.90
41592;DHT22;28026;48.562;14.440;2022-12-18T01:02:47;-9.20;99.90
41592;DHT22;28026;48.562;14.440;2022-12-18T01:05:18;-9.20;99.90
41592;DHT22;28026;48.562;14.440;2022-12-18T01:07:49;-9.30;99.90
41592;DHT22;28026;48.562;14.440;2022-12-18T01:10:20;-9.30;99.90
41592;DHT22;28026;48.562;14.440;2022-12-18T01:12:51;-9.10;99.90
41592;DHT22;28026;48.562;14.440;2022-12-18T01:15:22;-9.00;99.90
41592;DHT22;28026;48.562;14.440;2022-12-18T01:17:53;-9.00;99.90
41592;DHT22;28026;48.562;14.440;2022-12-18T01:20:24;-9.00;99.90
41592;DHT22;28026;48.562;14.440;2022-12-18T01:22:55;-9.00;99.90
41592;DHT22;28026;48.562;14.440;2022-12-18T01:25:26;-9.00;99.90
41592;DHT22;28026;48.562;14.440;2022-12-18T01:27:57;-9.00;99.90
41592;DHT22;28026;48.562;14.440;2022-12-18T01:30:27;-9.00;99.90
41592;DHT22;28026;48.562;14.440;2022-12-18T01:32:58;-9.00;99.90
41592;DHT22;28026;48.562;14.440;2022-12-18T01:35:29;-9.10;99.90
41592;DHT22;28026;48.562;14.440;2022-12-18T01:38:00;-9.20;99.90
41592;DHT22;28026;48.562;14.440;2022-12-18T01:40:31;-9.10;99.90
41592;DHT22;28026;48.562;14.440;2022-12-18T01:43:02;-9.10;99.90
41592;DHT22;28026;48.562;14.440;2022-12-18T01:45:33;-9.10;99.90
41592;DHT22;28026;48.562;14.440;2022-12-18T01:48:08;-9.10;99.90
41592;DHT22;28026;48.562;14.440;2022-12-18T01:50:42;-9.10;99.90
41592;DHT22;28026;48.562;14.440;2022-12-18T01:55:53;-9.10;99.90
41592;DHT22;28026;48.562;14.440;2022-12-18T01:58:38;-9.20;99.90
41592;DHT22;28026;48.562;14.440;2022-12-18T02:01:21;-9.20;99.90
41592;DHT22;28026;48.562;14.440;2022-12-18T02:03:54;-9.30;99.90
41592;DHT22;28026;48.562;14.440;2022-12-18T02:06:32;-9.30;99.90
41592;DHT22;28026;48.562;14.440;2022-12-18T02:09:13;-9.30;99.90
41592;DHT22;28026;48.562;14.440;2022-12-18T02:12:16;-9.30;99.90
41592;DHT22;28026;48.562;14.440;2022-12-18T02:17:41;-9.40;99.90
41592;DHT22;28026;48.562;14.440;2022-12-18T02:20:35;-9.50;99.90
41592;DHT22;28026;48.562;14.440;2022-12-18T02:26:19;-9.40;99.90
41592;DHT22;28026;48.562;14.440;2022-12-18T02:29:05;-9.40;99.90
41592;DHT22;28026;48.562;14.440;2022-12-18T02:31:56;-9.40;99.90
41592;DHT22;28026;48.562;14.440;2022-12-18T02:34:32;-9.50;99.90
41592;DHT22;28026;48.562;14.440;2022-12-18T02:37:12;-9.40;99.90
41592;DHT22;28026;48.562;14.440;2022-12-18T02:39:49;-9.50;99.90
41592;DHT22;28026;48.562;14.440;2022-12-18T02:42:25;-9.50;99.90
41592;DHT22;28026;48.562;14.440;2022-12-18T02:44:58;-9.50;99.90
41592;DHT22;28026;48.562;14.440;2022-12-18T02:47:31;-9.50;99.90
41592;DHT22;28026;48.562;14.440;2022-12-18T02:53:27;-9.70;99.90
41592;DHT22;28026;48.562;14.440;2022-12-18T02:56:16;-9.80;99.90
41592;DHT22;28026;48.562;14.440;2022-12-18T02:59:06;-9.80;99.90
41592;DHT22;28026;48.562;14.440;2022-12-18T03:01:52;-9.90;99.90
41592;DHT22;28026;48.562;14.440;2022-12-18T03:07:30;-10.00;99.90
41592;DHT22;28026;48.562;14.440;2022-12-18T03:10:14;-9.90;99.90
41592;DHT22;28026;48.562;14.440;2022-12-18T03:13:04;-9.90;99.90
41592;DHT22;28026;48.562;14.440;2022-12-18T03:15:45;-9.90;99.90
41592;DHT22;28026;48.562;14.440;2022-12-18T03:18:23;-9.80;99.90
41592;DHT22;28026;48.562;14.440;2022-12-18T03:21:05;-9.80;99.90
41592;DHT22;28026;48.562;14.440;2022-12-18T03:23:44;-9.90;99.90
41592;DHT22;28026;48.562;14.440;2022-12-18T03:26:22;-9.90;99.90
41592;DHT22;28026;48.562;14.440;2022-12-18T03:29:02;-10.00;99.90
41592;DHT22;28026;48.562;14.440;2022-12-18T03:31:47;-10.00;99.90
41592;DHT22;28026;48.562;14.440;2022-12-18T03:34:37;-10.20;99.90
41592;DHT22;28026;48.562;14.440;2022-12-18T03:37:12;-10.30;99.90
41592;DHT22;28026;48.562;14.440;2022-12-18T03:39:43;-10.20;99.90
41592;DHT22;28026;48.562;14.440;2022-12-18T03:42:32;-10.20;99.90
41592;DHT22;28026;48.562;14.440;2022-12-18T03:45:58;-10.10;99.90
41592;DHT22;28026;48.562;14.440;2022-12-18T03:48:48;-10.10;99.90
41592;DHT22;28026;48.562;14.440;2022-12-18T03:51:41;-10.10;99.90
41592;DHT22;28026;48.562;14.440;2022-12-18T03:54:23;-10.10;99.90
41592;DHT22;28026;48.562;14.440;2022-12-18T03:57:18;-10.10;99.90
41592;DHT22;28026;48.562;14.440;2022-12-18T03:59:57;-10.10;99.90
41592;DHT22;28026;48.562;14.440;2022-12-18T04:02:39;-10.00;99.90
41592;DHT22;28026;48.562;14.440;2022-12-18T04:05:17;-10.00;99.90
41592;DHT22;28026;48.562;14.440;2022-12-18T04:07:51;-10.10;99.90
41592;DHT22;28026;48.562;14.440;2022-12-18T04:10:24;-10.30;99.90
41592;DHT22;28026;48.562;14.440;2022-12-18T04:12:56;-9.50;99.90
41592;DHT22;28026;48.562;14.440;2022-12-18T04:15:28;-8.80;99.90
41592;DHT22;28026;48.562;14.440;2022-12-18T04:17:59;-9.10;99.90
41592;DHT22;28026;48.562;14.440;2022-12-18T04:20:30;-9.40;99.90
41592;DHT22;28026;48.562;14.440;2022-12-18T04:23:01;-9.60;99.90
41592;DHT22;28026;48.562;14.440;2022-12-18T04:25:32;-9.70;99.90
41592;DHT22;28026;48.562;14.440;2022-12-18T04:28:02;-9.80;99.90
41592;DHT22;28026;48.562;14.440;2022-12-18T04:30:33;-9.90;99.90
41592;DHT22;28026;48.562;14.440;2022-12-18T04:33:09;-10.10;99.90
41592;DHT22;28026;48.562;14.440;2022-12-18T04:35:42;-10.20;99.90
41592;DHT22;28026;48.562;14.440;2022-12-18T04:38:13;-10.10;99.90
41592;DHT22;28026;48.562;14.440;2022-12-18T04:40:44;-10.10;99.90
41592;DHT22;28026;48.562;14.440;2022-12-18T04:43:15;-10.00;99.90
41592;DHT22;28026;48.562;14.440;2022-12-18T04:45:46;-10.30;99.90
41592;DHT22;28026;48.562;14.440;2022-12-18T04:48:16;-10.30;99.90
41592;DHT22;28026;48.562;14.440;2022-12-18T04:50:47;-10.40;99.90
41592;DHT22;28026;48.562;14.440;2022-12-18T04:53:18;-10.50;99.90
41592;DHT22;28026;48.562;14.440;2022-12-18T04:55:49;-10.50;99.90
41592;DHT22;28026;48.562;14.440;2022-12-18T04:58:20;-10.40;99.90
41592;DHT22;28026;48.562;14.440;2022-12-18T05:00:50;-10.30;99.90
41592;DHT22;28026;48.562;14.440;2022-12-18T05:03:21;-10.50;99.90
41592;DHT22;28026;48.562;14.440;2022-12-18T05:05:52;-10.50;99.90
41592;DHT22;28026;48.562;14.440;2022-12-18T05:08:24;-10.50;99.90
41592;DHT22;28026;48.562;14.440;2022-12-18T05:11:10;-10.70;99.90
41592;DHT22;28026;48.562;14.440;2022-12-18T05:13:46;-10.80;99.90
41592;DHT22;28026;48.562;14.440;2022-12-18T05:16:17;-10.80;99.90
41592;DHT22;28026;48.562;14.440;2022-12-18T05:18:47;-10.80;99.90
41592;DHT22;28026;48.562;14.440;2022-12-18T05:21:18;-10.80;99.90
41592;DHT22;28026;48.562;14.440;2022-12-18T05:23:49;-10.80;99.90
41592;DHT22;28026;48.562;14.440;2022-12-18T05:26:20;-10.80;99.90
41592;DHT22;28026;48.562;14.440;2022-12-18T05:28:51;-10.90;99.90
41592;DHT22;28026;48.562;14.440;2022-12-18T05:31:22;-10.90;99.90
41592;DHT22;28026;48.562;14.440;2022-12-18T05:33:53;-10.90;99.90
41592;DHT22;28026;48.562;14.440;2022-12-18T05:36:24;-10.80;99.90
41592;DHT22;28026;48.562;14.440;2022-12-18T05:38:55;-10.70;99.90
41592;DHT22;28026;48.562;14.440;2022-12-18T05:41:26;-10.70;99.90
41592;DHT22;28026;48.562;14.440;2022-12-18T05:43:58;-10.80;99.90
41592;DHT22;28026;48.562;14.440;2022-12-18T05:46:29;-10.90;99.90
41592;DHT22;28026;48.562;14.440;2022-12-18T05:49:00;-11.00;99.90
41592;DHT22;28026;48.562;14.440;2022-12-18T05:51:31;-11.10;99.90
41592;DHT22;28026;48.562;14.440;2022-12-18T05:54:02;-11.20;99.90
41592;DHT22;28026;48.562;14.440;2022-12-18T05:56:33;-11.20;99.90
41592;DHT22;28026;48.562;14.440;2022-12-18T05:59:04;-11.20;99.90
41592;DHT22;28026;48.562;14.440;2022-12-18T06:01:35;-11.30;99.90
41592;DHT22;28026;48.562;14.440;2022-12-18T06:04:05;-11.30;99.90
41592;DHT22;28026;48.562;14.440;2022-12-18T06:06:36;-11.20;99.90
41592;DHT22;28026;48.562;14.440;2022-12-18T06:09:07;-11.10;99.90
41592;DHT22;28026;48.562;14.440;2022-12-18T06:11:39;-11.20;99.90
41592;DHT22;28026;48.562;14.440;2022-12-18T06:14:10;-11.10;99.90
41592;DHT22;28026;48.562;14.440;2022-12-18T06:16:41;-11.10;99.90
41592;DHT22;28026;48.562;14.440;2022-12-18T06:19:16;-11.10;99.90
41592;DHT22;28026;48.562;14.440;2022-12-18T06:21:47;-11.00;99.90
41592;DHT22;28026;48.562;14.440;2022-12-18T06:24:19;-11.00;99.90
41592;DHT22;28026;48.562;14.440;2022-12-18T06:26:50;-11.00;99.90
41592;DHT22;28026;48.562;14.440;2022-12-18T06:29:21;-11.00;99.90
41592;DHT22;28026;48.562;14.440;2022-12-18T06:31:52;-11.10;99.90
41592;DHT22;28026;48.562;14.440;2022-12-18T06:34:23;-11.10;99.90
41592;DHT22;28026;48.562;14.440;2022-12-18T06:36:54;-11.10;99.90
41592;DHT22;28026;48.562;14.440;2022-12-18T06:39:26;-11.00;99.90
41592;DHT22;28026;48.562;14.440;2022-12-18T06:41:58;-11.00;99.90
41592;DHT22;28026;48.562;14.440;2022-12-18T06:44:28;-11.00;99.90
41592;DHT22;28026;48.562;14.440;2022-12-18T06:46:59;-11.10;99.90
41592;DHT22;28026;48.562;14.440;2022-12-18T06:49:30;-11.20;99.90
41592;DHT22;28026;48.562;14.440;2022-12-18T06:52:01;-11.10;99.90
41592;DHT22;28026;48.562;14.440;2022-12-18T06:54:32;-11.10;99.90
41592;DHT22;28026;48.562;14.440;2022-12-18T06:57:03;-11.10;99.90
41592;DHT22;28026;48.562;14.440;2022-12-18T06:59:34;-11.00;99.90
41592;DHT22;28026;48.562;14.440;2022-12-18T07:02:05;-10.90;99.90
41592;DHT22;28026;48.562;14.440;2022-12-18T07:04:36;-10.70;99.90
41592;DHT22;28026;48.562;14.440;2022-12-18T07:07:07;-10.50;99.90
41592;DHT22;28026;48.562;14.440;2022-12-18T07:09:38;-10.20;99.90
41592;DHT22;28026;48.562;14.440;2022-12-18T07:12:08;-9.80;99.90
41592;DHT22;28026;48.562;14.440;2022-12-18T07:14:40;-9.10;99.90
41592;DHT22;28026;48.562;14.440;2022-12-18T07:17:10;-8.70;99.90
41592;DHT22;28026;48.562;14.440;2022-12-18T07:19:41;-8.70;99.90
41592;DHT22;28026;48.562;14.440;2022-12-18T07:22:12;-8.80;99.90
41592;DHT22;28026;48.562;14.440;2022-12-18T07:24:43;-8.80;99.90
41592;DHT22;28026;48.562;14.440;2022-12-18T07:27:14;-8.70;99.90
41592;DHT22;28026;48.562;14.440;2022-12-18T07:29:45;-8.50;99.90
41592;DHT22;28026;48.562;14.440;2022-12-18T07:32:16;-8.60;99.90
41592;DHT22;28026;48.562;14.440;2022-12-18T07:34:47;-8.70;99.90
41592;DHT22;28026;48.562;14.440;2022-12-18T07:37:18;-8.40;99.90
41592;DHT22;28026;48.562;14.440;2022-12-18T07:39:48;-8.00;99.90
41592;DHT22;28026;48.562;14.440;2022-12-18T07:42:19;-7.60;99.90
41592;DHT22;28026;48.562;14.440;2022-12-18T07:45:03;-7.20;99.90
41592;DHT22;28026;48.562;14.440;2022-12-18T07:47:35;-6.90;99.90
41592;DHT22;28026;48.562;14.440;2022-12-18T07:50:06;-6.50;99.90
41592;DHT22;28026;48.562;14.440;2022-12-18T07:52:38;-6.40;99.90
41592;DHT22;28026;48.562;14.440;2022-12-18T07:55:09;-6.20;99.90
41592;DHT22;28026;48.562;14.440;2022-12-18T07:57:40;-6.20;99.90
41592;DHT22;28026;48.562;14.440;2022-12-18T08:00:11;-5.70;99.90
41592;DHT22;28026;48.562;14.440;2022-12-18T08:02:43;-5.40;99.90
41592;DHT22;28026;48.562;14.440;2022-12-18T08:05:14;-5.30;99.90
41592;DHT22;28026;48.562;14.440;2022-12-18T08:07:45;-4.90;99.90
41592;DHT22;28026;48.562;14.440;2022-12-18T08:10:16;-4.80;99.90
41592;DHT22;28026;48.562;14.440;2022-12-18T08:12:51;-4.50;99.90
41592;DHT22;28026;48.562;14.440;2022-12-18T08:15:22;-4.20;99.90
41592;DHT22;28026;48.562;14.440;2022-12-18T08:17:56;-4.00;99.90
41592;DHT22;28026;48.562;14.440;2022-12-18T08:20:27;-3.90;99.90
41592;DHT22;28026;48.562;14.440;2022-12-18T08:22:58;-3.80;99.90
41592;DHT22;28026;48.562;14.440;2022-12-18T08:25:29;-4.10;99.90
41592;DHT22;28026;48.562;14.440;2022-12-18T08:28:00;-4.70;99.90
41592;DHT22;28026;48.562;14.440;2022-12-18T08:30:30;-5.00;99.90
41592;DHT22;28026;48.562;14.440;2022-12-18T08:33:01;-4.80;99.90
41592;DHT22;28026;48.562;14.440;2022-12-18T08:35:36;-4.30;99.90
41592;DHT22;28026;48.562;14.440;2022-12-18T08:38:07;-3.80;99.90
41592;DHT22;28026;48.562;14.440;2022-12-18T08:40:38;-3.50;99.90
41592;DHT22;28026;48.562;14.440;2022-12-18T08:43:10;-3.30;99.90
41592;DHT22;28026;48.562;14.440;2022-12-18T08:46:00;-3.10;99.90
41592;DHT22;28026;48.562;14.440;2022-12-18T08:48:31;-3.00;99.90
41592;DHT22;28026;48.562;14.440;2022-12-18T08:51:02;-3.20;99.90
41592;DHT22;28026;48.562;14.440;2022-12-18T08:53:33;-3.20;99.90
41592;DHT22;28026;48.562;14.440;2022-12-18T08:56:04;-3.30;99.90
41592;DHT22;28026;48.562;14.440;2022-12-18T08:58:36;-3.50;99.90
41592;DHT22;28026;48.562;14.440;2022-12-18T09:01:09;-3.20;99.90
41592;DHT22;28026;48.562;14.440;2022-12-18T09:03:42;-2.80;99.90
41592;DHT22;28026;48.562;14.440;2022-12-18T09:06:15;-2.40;99.90
41592;DHT22;28026;48.562;14.440;2022-12-18T09:08:48;-1.80;99.90
41592;DHT22;28026;48.562;14.440;2022-12-18T09:11:24;-1.30;99.90
41592;DHT22;28026;48.562;14.440;2022-12-18T09:13:59;-0.70;99.90
41592;DHT22;28026;48.562;14.440;2022-12-18T09:16:32;-0.10;99.90
41592;DHT22;28026;48.562;14.440;2022-12-18T09:19:05;0.00;99.90
41592;DHT22;28026;48.562;14.440;2022-12-18T09:21:39;0.20;99.90
41592;DHT22;28026;48.562;14.440;2022-12-18T09:24:12;0.10;99.90
41592;DHT22;28026;48.562;14.440;2022-12-18T09:26:45;0.50;99.90
41592;DHT22;28026;48.562;14.440;2022-12-18T09:29:16;0.40;99.90
41592;DHT22;28026;48.562;14.440;2022-12-18T09:31:47;0.60;99.90
41592;DHT22;28026;48.562;14.440;2022-12-18T09:34:19;0.60;99.90
41592;DHT22;28026;48.562;14.440;2022-12-18T09:36:52;0.20;99.90
41592;DHT22;28026;48.562;14.440;2022-12-18T09:39:23;-0.60;99.90
41592;DHT22;28026;48.562;14.440;2022-12-18T09:41:56;-0.40;99.90
41592;DHT22;28026;48.562;14.440;2022-12-18T09:44:43;0.10;99.90
41592;DHT22;28026;48.562;14.440;2022-12-18T09:50:29;0.40;99.90
41592;DHT22;28026;48.562;14.440;2022-12-18T09:53:12;0.20;99.90
41592;DHT22;28026;48.562;14.440;2022-12-18T09:55:52;0.40;99.90
41592;DHT22;28026;48.562;14.440;2022-12-18T09:58:28;1.10;99.90
41592;DHT22;28026;48.562;14.440;2022-12-18T10:01:11;1.70;99.90
41592;DHT22;28026;48.562;14.440;2022-12-18T10:03:47;2.30;99.90
41592;DHT22;28026;48.562;14.440;2022-12-18T10:06:42;2.40;99.90
41592;DHT22;28026;48.562;14.440;2022-12-18T10:09:48;1.80;99.90
41592;DHT22;28026;48.562;14.440;2022-12-18T10:12:44;1.90;99.90
41592;DHT22;28026;48.562;14.440;2022-12-18T10:16:19;1.90;99.90
41592;DHT22;28026;48.562;14.440;2022-12-18T10:22:44;0.90;99.90
41592;DHT22;28026;48.562;14.440;2022-12-18T10:25:36;1.10;99.90
41592;DHT22;28026;48.562;14.440;2022-12-18T10:28:39;1.40;99.90
41592;DHT22;28026;48.562;14.440;2022-12-18T10:31:20;2.40;99.90
41592;DHT22;28026;48.562;14.440;2022-12-18T10:33:54;2.60;99.90
41592;DHT22;28026;48.562;14.440;2022-12-18T10:36:25;2.30;99.90
41592;DHT22;28026;48.562;14.440;2022-12-18T10:39:15;2.10;99.90
41592;DHT22;28026;48.562;14.440;2022-12-18T10:41:50;2.50;99.90
41592;DHT22;28026;48.562;14.440;2022-12-18T10:44:26;3.30;99.90
41592;DHT22;28026;48.562;14.440;2022-12-18T10:47:04;4.00;99.90
41592;DHT22;28026;48.562;14.440;2022-12-18T10:49:52;4.30;99.90
41592;DHT22;28026;48.562;14.440;2022-12-18T10:52:26;4.50;99.90
41592;DHT22;28026;48.562;14.440;2022-12-18T10:54:59;4.60;99.90
41592;DHT22;28026;48.562;14.440;2022-12-18T10:57:39;4.40;99.90
41592;DHT22;28026;48.562;14.440;2022-12-18T11:00:28;4.60;99.90
41592;DHT22;28026;48.562;14.440;2022-12-18T11:03:00;4.70;99.90
41592;DHT22;28026;48.562;14.440;2022-12-18T11:05:33;5.00;99.90
41592;DHT22;28026;48.562;14.440;2022-12-18T11:08:20;3.40;99.90
41592;DHT22;28026;48.562;14.440;2022-12-18T11:10:54;2.50;99.90
41592;DHT22;28026;48.562;14.440;2022-12-18T11:13:27;2.60;99.90
41592;DHT22;28026;48.562;14.440;2022-12-18T11:16:02;2.60;99.90
41592;DHT22;28026;48.562;14.440;2022-12-18T11:18:35;3.40;99.90
41592;DHT22;28026;48.562;14.440;2022-12-18T11:21:07;3.60;99.90
41592;DHT22;28026;48.562;14.440;2022-12-18T11:23:52;4.00;99.90
41592;DHT22;28026;48.562;14.440;2022-12-18T11:26:34;3.30;99.90
41592;DHT22;28026;48.562;14.440;2022-12-18T11:29:15;3.20;99.90
41592;DHT22;28026;48.562;14.440;2022-12-18T11:35:30;3.80;99.90
41592;DHT22;28026;48.562;14.440;2022-12-18T11:38:26;4.50;99.90
41592;DHT22;28026;48.562;14.440;2022-12-18T11:41:24;4.80;99.90
41592;DHT22;28026;48.562;14.440;2022-12-18T11:44:26;4.70;99.90
41592;DHT22;28026;48.562;14.440;2022-12-18T11:47:33;5.20;99.90
41592;DHT22;28026;48.562;14.440;2022-12-18T11:50:17;4.90;99.90
41592;DHT22;28026;48.562;14.440;2022-12-18T11:52:54;4.10;99.90
41592;DHT22;28026;48.562;14.440;2022-12-18T12:01:53;4.40;99.90
41592;DHT22;28026;48.562;14.440;2022-12-18T12:10:57;4.90;99.90
41592;DHT22;28026;48.562;14.440;2022-12-18T12:19:15;5.60;99.90
41592;DHT22;28026;48.562;14.440;2022-12-18T12:32:12;5.00;99.90
41592;DHT22;28026;48.562;14.440;2022-12-18T12:38:28;5.20;99.90
41592;DHT22;28026;48.562;14.440;2022-12-18T12:41:12;4.60;99.90
41592;DHT22;28026;48.562;14.440;2022-12-18T12:44:14;4.10;99.90
41592;DHT22;28026;48.562;14.440;2022-12-18T12:47:39;4.10;99.90
41592;DHT22;28026;48.562;14.440;2022-12-18T12:50:17;4.20;99.90
41592;DHT22;28026;48.562;14.440;2022-12-18T12:52:53;4.30;99.90
41592;DHT22;28026;48.562;14.440;2022-12-18T12:55:28;4.20;99.90
41592;DHT22;28026;48.562;14.440;2022-12-18T13:01:39;4.70;99.90
41592;DHT22;28026;48.562;14.440;2022-12-18T13:04:27;4.60;99.90
41592;DHT22;28026;48.562;14.440;2022-12-18T13:07:26;2.90;99.90
41592;DHT22;28026;48.562;14.440;2022-12-18T13:18:24;4.30;99.90
41592;DHT22;28026;48.562;14.440;2022-12-18T13:23:35;3.30;99.90
41592;DHT22;28026;48.562;14.440;2022-12-18T13:29:00;3.50;99.90
41592;DHT22;28026;48.562;14.440;2022-12-18T13:34:22;2.40;99.90
41592;DHT22;28026;48.562;14.440;2022-12-18T13:36:57;2.10;99.90
41592;DHT22;28026;48.562;14.440;2022-12-18T13:40:02;2.20;99.90
41592;DHT22;28026;48.562;14.440;2022-12-18T13:46:04;2.90;99.90
41592;DHT22;28026;48.562;14.440;2022-12-18T13:48:56;3.20;99.90
41592;DHT22;28026;48.562;14.440;2022-12-18T13:51:35;3.70;99.90
41592;DHT22;28026;48.562;14.440;2022-12-18T13:54:27;3.40;99.90
41592;DHT22;28026;48.562;14.440;2022-12-18T13:57:37;3.40;99.90
41592;DHT22;28026;48.562;14.440;2022-12-18T14:00:29;3.10;99.90
41592;DHT22;28026;48.562;14.440;2022-12-18T14:03:01;3.00;99.90
41592;DHT22;28026;48.562;14.440;2022-12-18T14:05:35;2.80;99.90
41592;DHT22;28026;48.562;14.440;2022-12-18T14:08:11;2.80;99.90
41592;DHT22;28026;48.562;14.440;2022-12-18T14:10:48;2.80;99.90
41592;DHT22;28026;48.562;14.440;2022-12-18T14:13:31;2.20;99.90
41592;DHT22;28026;48.562;14.440;2022-12-18T14:16:12;2.10;99.90
41592;DHT22;28026;48.562;14.440;2022-12-18T14:18:57;1.50;99.90
41592;DHT22;28026;48.562;14.440;2022-12-18T14:21:31;0.70;99.90
41592;DHT22;28026;48.562;14.440;2022-12-18T14:24:18;0.50;99.90
41592;DHT22;28026;48.562;14.440;2022-12-18T14:26:51;0.00;99.90
41592;DHT22;28026;48.562;14.440;2022-12-18T14:29:26;-0.40;99.90
41592;DHT22;28026;48.562;14.440;2022-12-18T14:32:09;-0.80;99.90
41592;DHT22;28026;48.562;14.440;2022-12-18T14:34:50;-1.40;99.90
41592;DHT22;28026;48.562;14.440;2022-12-18T14:37:27;-1.80;99.90
41592;DHT22;28026;48.562;14.440;2022-12-18T14:40:01;-2.00;99.90
41592;DHT22;28026;48.562;14.440;2022-12-18T14:42:44;-2.30;99.90
41592;DHT22;28026;48.562;14.440;2022-12-18T14:45:41;-2.70;99.90
41592;DHT22;28026;48.562;14.440;2022-12-18T14:48:21;-2.80;99.90
41592;DHT22;28026;48.562;14.440;2022-12-18T14:51:23;-2.90;99.90
41592;DHT22;28026;48.562;14.440;2022-12-18T14:54:05;-3.00;99.90
41592;DHT22;28026;48.562;14.440;2022-12-18T14:57:05;-3.00;99.90
41592;DHT22;28026;48.562;14.440;2022-12-18T15:00:07;-3.10;99.90
41592;DHT22;28026;48.562;14.440;2022-12-18T15:02:53;-3.40;99.90
41592;DHT22;28026;48.562;14.440;2022-12-18T15:05:29;-3.40;99.90
41592;DHT22;28026;48.562;14.440;2022-12-18T15:08:02;-3.50;99.90
41592;DHT22;28026;48.562;14.440;2022-12-18T15:10:34;-3.60;99.90
41592;DHT22;28026;48.562;14.440;2022-12-18T15:18:13;-4.00;99.90
41592;DHT22;28026;48.562;14.440;2022-12-18T15:20:50;-4.40;99.90
41592;DHT22;28026;48.562;14.440;2022-12-18T15:23:36;-4.50;99.90
41592;DHT22;28026;48.562;14.440;2022-12-18T15:26:19;-4.40;99.90
41592;DHT22;28026;48.562;14.440;2022-12-18T15:28:54;-4.50;99.90
41592;DHT22;28026;48.562;14.440;2022-12-18T15:31:34;-4.50;99.90
41592;DHT22;28026;48.562;14.440;2022-12-18T15:34:12;-4.70;99.90
41592;DHT22;28026;48.562;14.440;2022-12-18T15:36:51;-4.80;99.90
41592;DHT22;28026;48.562;14.440;2022-12-18T15:39:22;-4.90;99.90
41592;DHT22;28026;48.562;14.440;2022-12-18T15:41:53;-4.90;99.90
41592;DHT22;28026;48.562;14.440;2022-12-18T15:44:44;-5.00;99.90
41592;DHT22;28026;48.562;14.440;2022-12-18T15:47:15;-5.20;99.90
41592;DHT22;28026;48.562;14.440;2022-12-18T15:49:46;-5.70;99.90
41592;DHT22;28026;48.562;14.440;2022-12-18T15:52:17;-5.50;99.90
41592;DHT22;28026;48.562;14.440;2022-12-18T15:54:56;-5.40;99.90
41592;DHT22;28026;48.562;14.440;2022-12-18T15:57:45;-5.40;99.90
41592;DHT22;28026;48.562;14.440;2022-12-18T16:00:16;-5.50;99.90
41592;DHT22;28026;48.562;14.440;2022-12-18T16:02:48;-5.50;99.90
41592;DHT22;28026;48.562;14.440;2022-12-18T16:05:20;-5.50;99.90
41592;DHT22;28026;48.562;14.440;2022-12-18T16:07:53;-5.50;99.90
41592;DHT22;28026;48.562;14.440;2022-12-18T16:10:25;-5.40;99.90
41592;DHT22;28026;48.562;14.440;2022-12-18T16:12:57;-5.40;99.90
41592;DHT22;28026;48.562;14.440;2022-12-18T16:15:28;-5.60;99.90
41592;DHT22;28026;48.562;14.440;2022-12-18T16:17:59;-5.60;99.90
41592;DHT22;28026;48.562;14.440;2022-12-18T16:20:30;-5.60;99.90
41592;DHT22;28026;48.562;14.440;2022-12-18T16:23:01;-5.60;99.90
41592;DHT22;28026;48.562;14.440;2022-12-18T16:25:32;-5.70;99.90
41592;DHT22;28026;48.562;14.440;2022-12-18T16:28:03;-5.80;99.90
41592;DHT22;28026;48.562;14.440;2022-12-18T16:30:34;-5.90;99.90
41592;DHT22;28026;48.562;14.440;2022-12-18T16:33:05;-6.00;99.90
41592;DHT22;28026;48.562;14.440;2022-12-18T16:35:35;-6.00;99.90
41592;DHT22;28026;48.562;14.440;2022-12-18T16:38:07;-6.00;99.90
41592;DHT22;28026;48.562;14.440;2022-12-18T16:40:38;-6.00;99.90
41592;DHT22;28026;48.562;14.440;2022-12-18T16:43:29;-5.90;99.90
41592;DHT22;28026;48.562;14.440;2022-12-18T16:45:59;-5.90;99.90
41592;DHT22;28026;48.562;14.440;2022-12-18T16:48:31;-5.80;99.90
41592;DHT22;28026;48.562;14.440;2022-12-18T16:51:03;-5.80;99.90
41592;DHT22;28026;48.562;14.440;2022-12-18T16:53:35;-6.00;99.90
41592;DHT22;28026;48.562;14.440;2022-12-18T16:56:06;-6.00;99.90
41592;DHT22;28026;48.562;14.440;2022-12-18T16:58:37;-6.10;99.90
41592;DHT22;28026;48.562;14.440;2022-12-18T17:01:10;-6.20;99.90
41592;DHT22;28026;48.562;14.440;2022-12-18T17:03:41;-6.50;99.90
41592;DHT22;28026;48.562;14.440;2022-12-18T17:06:12;-6.60;99.90
41592;DHT22;28026;48.562;14.440;2022-12-18T17:08:42;-6.70;99.90
41592;DHT22;28026;48.562;14.440;2022-12-18T17:11:13;-6.70;99.90
41592;DHT22;28026;48.562;14.440;2022-12-18T17:13:44;-6.70;99.90
41592;DHT22;28026;48.562;14.440;2022-12-18T17:16:15;-6.60;99.90
41592;DHT22;28026;48.562;14.440;2022-12-18T17:18:47;-6.60;99.90
41592;DHT22;28026;48.562;14.440;2022-12-18T17:21:19;-6.60;99.90
41592;DHT22;28026;48.562;14.440;2022-12-18T17:23:49;-6.60;99.90
41592;DHT22;28026;48.562;14.440;2022-12-18T17:26:20;-6.70;99.90
41592;DHT22;28026;48.562;14.440;2022-12-18T17:28:51;-6.70;99.90
41592;DHT22;28026;48.562;14.440;2022-12-18T17:31:24;-6.70;99.90
41592;DHT22;28026;48.562;14.440;2022-12-18T17:34:02;-6.80;99.90
41592;DHT22;28026;48.562;14.440;2022-12-18T17:36:33;-6.80;99.90
41592;DHT22;28026;48.562;14.440;2022-12-18T17:39:05;-6.80;99.90
41592;DHT22;28026;48.562;14.440;2022-12-18T17:41:37;-7.00;99.90